Terminal Aerodrome Forecast
Issued by NWS

Home | Current Version | Previous Version | Text Only | Print | Product List | Glossary On
Versions: 1 2 3 4 5 6 7 8 9 10 11 12 13 14 15 16 17 18 19 20 21 22 23 24 25 26 27 28 29 30 31 32 33 34 35 36 37 38 39 40 41 42 43 44 45 46 47 48
000
FTAK31 PANC 181248 AAA
TAFADL
TAF AMD
PADL 181248Z 1813/1912 32005KT 6SM -SHRA BR FEW006 SCT020 BKN040
     FM181500 36005KT P6SM VCSH BKN020 OVC030
     FM182100 32006KT P6SM BKN040
      AMD LTD TO CLD VIS AND WIND TIL 181600=

USA.gov is the U.S. government's official web portal to all federal, state and local government web resources and services.